createdAt,value
2018-01-07T00:01:04.105Z,14.53
2018-01-07T00:03:31.616Z,13.87
2018-01-07T00:05:59.168Z,13.40
2018-01-07T00:08:26.705Z,12.23
2018-01-07T00:10:54.241Z,10.90
2018-01-07T00:13:21.895Z,11.13
2018-01-07T00:15:49.763Z,10.67
2018-01-07T00:18:17.320Z,11.20
2018-01-07T00:20:44.872Z,12.33
2018-01-07T00:23:12.406Z,13.00
2018-01-07T00:25:39.922Z,10.53
2018-01-07T00:28:07.458Z,11.47
2018-01-07T00:30:34.975Z,12.13
2018-01-07T00:33:02.510Z,12.40
2018-01-07T00:35:30.043Z,11.10
2018-01-07T00:37:57.577Z,12.33
2018-01-07T00:40:25.119Z,12.20
2018-01-07T00:42:52.645Z,12.40
2018-01-07T00:45:20.221Z,11.53
2018-01-07T00:47:47.747Z,13.03
2018-01-07T00:50:15.289Z,12.00
2018-01-07T00:52:42.816Z,11.13
2018-01-07T00:55:10.347Z,10.80
2018-01-07T00:57:37.867Z,9.90
2018-01-07T01:00:05.430Z,11.00
2018-01-07T01:02:32.986Z,10.13
2018-01-07T01:05:00.513Z,9.70
2018-01-07T01:07:28.032Z,10.43
2018-01-07T01:09:55.563Z,9.90
2018-01-07T01:12:23.115Z,11.77
2018-01-07T01:14:50.661Z,15.73
2018-01-07T01:17:18.210Z,10.00
2018-01-07T01:19:45.748Z,10.77
2018-01-07T01:22:13.341Z,10.20
2018-01-07T01:24:40.879Z,10.17
2018-01-07T01:27:08.405Z,12.47
2018-01-07T01:29:35.937Z,11.20
2018-01-07T01:32:03.478Z,9.90
2018-01-07T01:34:31.143Z,13.97
2018-01-07T01:36:59.261Z,10.60
2018-01-07T01:39:26.802Z,10.43
2018-01-07T01:41:54.341Z,11.50
2018-01-07T01:44:21.880Z,11.80
2018-01-07T01:46:49.403Z,12.47
2018-01-07T01:49:22.935Z,12.70
2018-01-07T01:51:50.457Z,12.50
2018-01-07T01:54:18.002Z,13.10
2018-01-07T01:56:45.539Z,12.73
2018-01-07T01:59:13.060Z,11.60
2018-01-07T02:01:40.611Z,10.77
2018-01-07T02:04:08.207Z,9.43
2018-01-07T02:06:35.740Z,10.37
2018-01-07T02:09:03.285Z,10.10
2018-01-07T02:11:30.821Z,10.77
2018-01-07T02:13:58.339Z,10.50
2018-01-07T02:16:25.861Z,13.13
2018-01-07T02:18:53.386Z,11.53
2018-01-07T02:21:20.895Z,9.70
2018-01-07T02:23:48.429Z,10.97
2018-01-07T02:26:15.956Z,12.50
2018-01-07T02:28:43.482Z,14.00
2018-01-07T02:31:10.994Z,14.50
2018-01-07T02:33:38.520Z,12.83
2018-01-07T02:36:06.052Z,13.20
2018-01-07T02:38:33.587Z,11.20
2018-01-07T02:41:01.128Z,13.57
2018-01-07T02:43:28.672Z,14.70
2018-01-07T02:45:56.181Z,17.30
2018-01-07T02:48:23.717Z,20.37
2018-01-07T02:50:51.259Z,19.30
2018-01-07T02:53:18.805Z,20.77
2018-01-07T02:55:46.316Z,17.70
2018-01-07T02:58:13.831Z,18.10
2018-01-07T03:00:41.361Z,15.63
2018-01-07T03:03:08.901Z,13.50
2018-01-07T03:05:36.436Z,13.77
2018-01-07T03:08:03.952Z,14.80
2018-01-07T03:10:31.582Z,15.53
2018-01-07T03:12:59.162Z,15.17
2018-01-07T03:15:26.681Z,16.17
2018-01-07T03:17:54.213Z,15.07
2018-01-07T03:20:21.735Z,16.30
2018-01-07T03:22:49.277Z,19.70
2018-01-07T03:25:16.793Z,19.30
2018-01-07T03:27:44.351Z,17.47
2018-01-07T03:30:11.897Z,18.83
2018-01-07T03:32:39.420Z,18.27
2018-01-07T03:35:06.981Z,21.20
2018-01-07T03:37:34.522Z,21.07
2018-01-07T03:40:02.196Z,18.70
2018-01-07T03:42:29.727Z,17.00
2018-01-07T03:44:57.252Z,15.70
2018-01-07T03:47:24.796Z,14.10
2018-01-07T03:49:52.341Z,15.97
2018-01-07T03:52:19.876Z,16.80
2018-01-07T03:54:47.420Z,17.87
2018-01-07T03:57:14.950Z,20.60
2018-01-07T03:59:42.488Z,22.40
2018-01-07T04:02:10.038Z,21.40
2018-01-07T04:04:37.588Z,22.50
2018-01-07T04:07:05.126Z,22.90
2018-01-07T04:09:32.685Z,21.47
2018-01-07T04:12:00.226Z,19.07
2018-01-07T04:14:27.756Z,21.53
2018-01-07T04:16:55.504Z,22.00
2018-01-07T04:19:23.026Z,20.10
2018-01-07T04:21:50.612Z,17.87
2018-01-07T04:24:18.143Z,17.53
2018-01-07T04:26:46.632Z,18.77
2018-01-07T04:29:15.130Z,20.97
2018-01-07T04:31:42.677Z,23.70
2018-01-07T04:34:10.257Z,25.70
2018-01-07T04:36:37.788Z,29.27
2018-01-07T04:39:05.331Z,26.33
2018-01-07T04:41:32.846Z,18.57
2018-01-07T04:44:00.373Z,16.17
2018-01-07T04:46:27.887Z,15.43
2018-01-07T04:48:55.431Z,14.90
2018-01-07T04:51:23.103Z,17.50
2018-01-07T04:53:50.617Z,18.87
2018-01-07T04:56:18.177Z,17.60
2018-01-07T04:58:45.790Z,19.70
2018-01-07T05:01:13.322Z,19.80
2018-01-07T05:03:40.857Z,17.97
2018-01-07T05:06:08.458Z,16.50
2018-01-07T05:08:36.008Z,19.63
2018-01-07T05:11:03.552Z,22.03
2018-01-07T05:13:31.116Z,24.47
2018-01-07T05:15:58.642Z,23.03
2018-01-07T05:18:26.152Z,19.87
2018-01-07T05:20:53.666Z,18.53
2018-01-07T05:23:21.206Z,18.63
2018-01-07T05:25:48.763Z,18.80
2018-01-07T05:28:16.476Z,23.63
2018-01-07T05:30:44.025Z,22.73
2018-01-07T05:33:11.536Z,25.17
2018-01-07T05:35:39.081Z,25.63
2018-01-07T05:38:06.646Z,22.23
2018-01-07T05:40:34.183Z,19.00
2018-01-07T05:43:01.772Z,18.40
2018-01-07T05:45:29.289Z,20.47
2018-01-07T05:47:56.812Z,20.17
2018-01-07T05:50:24.341Z,19.27
2018-01-07T05:52:51.877Z,17.07
2018-01-07T05:55:19.428Z,16.57
2018-01-07T05:57:46.951Z,15.83
2018-01-07T06:00:14.516Z,18.87
2018-01-07T06:02:42.088Z,20.90
2018-01-07T06:05:09.635Z,25.60
2018-01-07T06:07:37.161Z,18.67
2018-01-07T06:10:04.706Z,18.10
2018-01-07T06:12:32.227Z,15.40
2018-01-07T06:15:00.687Z,17.83
2018-01-07T06:17:28.213Z,19.33
2018-01-07T06:19:55.741Z,14.40
2018-01-07T06:22:23.282Z,17.30
2018-01-07T06:24:50.813Z,18.60
2018-01-07T06:27:18.349Z,17.07
2018-01-07T06:29:45.887Z,18.37
2018-01-07T06:32:13.445Z,20.40
2018-01-07T06:34:40.968Z,21.27
2018-01-07T06:37:08.477Z,20.77
2018-01-07T06:39:36.059Z,19.30
2018-01-07T06:42:03.597Z,17.80
2018-01-07T06:44:31.140Z,22.03
2018-01-07T06:46:58.676Z,19.80
2018-01-07T06:49:26.216Z,18.50
2018-01-07T06:51:53.736Z,18.50
2018-01-07T06:54:21.262Z,17.97
2018-01-07T06:56:48.888Z,19.83
2018-01-07T06:59:16.413Z,19.80
2018-01-07T07:01:43.966Z,22.10
2018-01-07T07:04:11.502Z,20.63
2018-01-07T07:06:39.688Z,20.30
2018-01-07T07:09:07.253Z,22.73
2018-01-07T07:11:34.781Z,21.30
2018-01-07T07:14:02.302Z,20.70
2018-01-07T07:16:29.823Z,21.00
2018-01-07T07:18:57.366Z,21.87
2018-01-07T07:21:24.891Z,19.00
2018-01-07T07:23:52.421Z,26.57
2018-01-07T07:26:19.966Z,25.20
2018-01-07T07:28:47.517Z,51.73
2018-01-07T07:31:15.072Z,49.10
2018-01-07T07:33:42.648Z,46.70
2018-01-07T07:36:10.198Z,36.03
2018-01-07T07:38:37.748Z,25.20
2018-01-07T07:41:05.286Z,27.30
2018-01-07T07:43:32.817Z,27.60
2018-01-07T07:46:00.436Z,50.10
2018-01-07T07:48:27.979Z,38.67
2018-01-07T07:50:55.501Z,28.63
2018-01-07T07:53:23.027Z,20.00
2018-01-07T07:55:50.561Z,24.37
2018-01-07T07:58:18.092Z,27.40
2018-01-07T08:00:45.643Z,29.37
2018-01-07T08:03:13.163Z,25.20
2018-01-07T08:05:40.676Z,23.13
2018-01-07T08:08:08.211Z,39.90
2018-01-07T08:10:35.779Z,25.43
2018-01-07T08:13:03.355Z,21.53
2018-01-07T08:15:30.908Z,20.00
2018-01-07T08:17:58.536Z,18.97
2018-01-07T08:20:26.971Z,19.60
2018-01-07T08:22:54.527Z,18.47
2018-01-07T08:25:22.102Z,17.37
2018-01-07T08:27:49.628Z,16.50
2018-01-07T08:30:17.349Z,15.93
2018-01-07T08:32:44.887Z,17.43
2018-01-07T08:35:12.433Z,18.47
2018-01-07T08:37:39.978Z,16.90
2018-01-07T08:40:07.503Z,15.57
2018-01-07T08:42:35.027Z,17.20
2018-01-07T08:45:02.593Z,18.70
2018-01-07T08:47:30.116Z,18.50
2018-01-07T08:49:57.641Z,18.23
2018-01-07T08:52:25.174Z,24.77
2018-01-07T08:54:52.720Z,17.50
2018-01-07T08:57:20.262Z,17.23
2018-01-07T08:59:47.794Z,16.23
2018-01-07T09:02:15.326Z,14.80
2018-01-07T09:04:42.860Z,16.43
2018-01-07T09:07:10.388Z,13.90
2018-01-07T09:09:37.926Z,15.73
2018-01-07T09:12:05.458Z,15.97
2018-01-07T09:14:32.996Z,16.40
2018-01-07T09:17:00.525Z,13.93
2018-01-07T09:19:28.033Z,16.87
2018-01-07T09:21:55.578Z,19.60
2018-01-07T09:24:23.134Z,18.10
2018-01-07T09:26:50.679Z,18.00
2018-01-07T09:29:18.237Z,16.20
2018-01-07T09:31:45.764Z,16.70
2018-01-07T09:34:13.298Z,18.30
2018-01-07T09:36:40.836Z,15.90
2018-01-07T09:39:08.373Z,17.53
2018-01-07T09:41:35.895Z,31.03
2018-01-07T09:44:03.412Z,18.77
2018-01-07T09:46:30.936Z,17.67
2018-01-07T09:48:58.484Z,16.50
2018-01-07T09:51:26.018Z,17.60
2018-01-07T09:53:53.550Z,17.90
2018-01-07T09:56:21.091Z,17.60
2018-01-07T09:58:48.684Z,23.87
2018-01-07T10:01:16.227Z,23.17
2018-01-07T10:03:43.768Z,19.10
2018-01-07T10:06:11.329Z,20.23
2018-01-07T10:08:38.889Z,19.50
2018-01-07T10:11:06.616Z,22.30
2018-01-07T10:13:34.160Z,19.17
2018-01-07T10:16:01.703Z,20.00
2018-01-07T10:18:29.234Z,21.20
2018-01-07T10:20:56.780Z,20.97
2018-01-07T10:23:24.383Z,24.63
2018-01-07T10:25:51.930Z,24.73
2018-01-07T10:28:19.457Z,22.73
2018-01-07T10:30:47.044Z,22.87
2018-01-07T10:33:14.618Z,22.10
2018-01-07T10:35:42.168Z,21.60
2018-01-07T10:38:09.717Z,21.70
2018-01-07T10:40:37.233Z,23.87
2018-01-07T10:43:04.764Z,21.77
2018-01-07T10:45:32.270Z,24.10
2018-01-07T10:47:59.802Z,26.87
2018-01-07T10:50:27.534Z,25.43
2018-01-07T10:52:55.072Z,25.63
2018-01-07T10:55:22.588Z,23.87
2018-01-07T10:57:50.143Z,22.77
2018-01-07T11:00:17.698Z,22.00
2018-01-07T11:02:45.243Z,20.83
2018-01-07T11:05:12.807Z,23.07
2018-01-07T11:07:40.322Z,19.90
2018-01-07T11:10:07.874Z,20.93
2018-01-07T11:12:35.398Z,21.13
2018-01-07T11:15:02.929Z,20.90
2018-01-07T11:17:30.580Z,17.73
2018-01-07T11:19:58.138Z,19.20
2018-01-07T11:22:25.677Z,19.00
2018-01-07T11:24:53.233Z,25.87
2018-01-07T11:27:20.786Z,20.87
2018-01-07T11:29:48.379Z,17.97
2018-01-07T11:32:15.929Z,17.70
2018-01-07T11:34:43.467Z,18.83
2018-01-07T11:37:11.216Z,16.87
2018-01-07T11:39:38.752Z,17.70
2018-01-07T11:42:06.290Z,17.60
2018-01-07T11:44:34.049Z,16.80
2018-01-07T11:47:01.593Z,16.53
2018-01-07T11:49:31.305Z,16.17
2018-01-07T11:51:58.818Z,18.00
2018-01-07T11:54:26.370Z,15.20
2018-01-07T11:56:55.770Z,15.20
2018-01-07T11:59:23.318Z,15.87
2018-01-07T12:01:50.850Z,17.37
2018-01-07T12:04:18.514Z,21.90
2018-01-07T12:06:46.120Z,16.57
2018-01-07T12:09:13.644Z,16.83
2018-01-07T12:11:41.160Z,15.87
2018-01-07T12:14:08.720Z,15.23
2018-01-07T12:16:36.241Z,15.87
2018-01-07T12:19:04.422Z,15.20
2018-01-07T12:21:31.965Z,14.47
2018-01-07T12:23:59.533Z,13.33
2018-01-07T12:26:27.113Z,15.33
2018-01-07T12:28:54.651Z,13.53
2018-01-07T12:31:22.215Z,15.27
2018-01-07T12:33:49.752Z,13.67
2018-01-07T12:36:17.350Z,13.53
2018-01-07T12:38:44.900Z,13.90
2018-01-07T12:41:12.410Z,14.60
2018-01-07T12:43:39.948Z,13.97
2018-01-07T12:46:07.516Z,13.70
2018-01-07T12:48:35.202Z,13.20
2018-01-07T12:51:02.739Z,14.10
2018-01-07T12:53:30.422Z,13.33
2018-01-07T12:56:00.065Z,12.40
2018-01-07T12:58:30.982Z,13.40
2018-01-07T13:00:58.528Z,12.17
2018-01-07T13:03:26.069Z,11.70
2018-01-07T13:05:53.592Z,12.10
2018-01-07T13:08:21.114Z,13.13
2018-01-07T13:10:48.676Z,13.00
2018-01-07T13:13:17.345Z,13.70
2018-01-07T13:15:45.523Z,12.47
2018-01-07T13:18:13.174Z,11.10
2018-01-07T13:20:40.736Z,12.40
2018-01-07T13:23:08.264Z,10.43
2018-01-07T13:25:35.827Z,12.13
2018-01-07T13:28:03.389Z,10.83
2018-01-07T13:30:31.072Z,10.20
2018-01-07T13:32:58.598Z,11.03
2018-01-07T13:35:26.150Z,9.43
2018-01-07T13:37:53.727Z,10.47
2018-01-07T13:40:21.249Z,10.83
2018-01-07T13:42:48.879Z,11.57
2018-01-07T13:45:16.404Z,8.83
2018-01-07T13:47:43.942Z,10.70
2018-01-07T13:50:11.499Z,9.87
2018-01-07T13:52:39.048Z,13.00
2018-01-07T13:55:07.074Z,9.93
2018-01-07T13:57:34.607Z,11.03
2018-01-07T14:00:02.155Z,12.00
2018-01-07T14:02:29.733Z,12.07
2018-01-07T14:04:57.278Z,13.33
2018-01-07T14:07:24.825Z,11.37
2018-01-07T14:09:52.362Z,9.90
2018-01-07T14:12:19.993Z,9.83
2018-01-07T14:14:47.523Z,8.50
2018-01-07T14:17:15.083Z,15.90
2018-01-07T14:19:42.772Z,10.20
2018-01-07T14:22:10.319Z,10.53
2018-01-07T14:24:37.955Z,9.03
2018-01-07T14:27:05.549Z,9.90
2018-01-07T14:29:33.083Z,11.00
2018-01-07T14:32:00.669Z,12.33
2018-01-07T14:34:28.213Z,10.77
2018-01-07T14:36:55.759Z,10.33
2018-01-07T14:39:23.292Z,10.27
2018-01-07T14:41:50.827Z,10.67
2018-01-07T14:44:18.350Z,13.70
2018-01-07T14:46:45.899Z,12.67
2018-01-07T14:49:13.422Z,9.63
2018-01-07T14:51:40.962Z,9.50
2018-01-07T14:54:08.529Z,11.47
2018-01-07T14:56:36.085Z,10.87
2018-01-07T14:59:03.623Z,11.43
2018-01-07T15:01:31.283Z,10.17
2018-01-07T15:03:58.823Z,10.90
2018-01-07T15:06:26.379Z,8.87
2018-01-07T15:08:54.044Z,8.70
2018-01-07T15:11:21.578Z,9.77
2018-01-07T15:13:49.127Z,9.40
2018-01-07T15:16:16.661Z,10.80
2018-01-07T15:18:44.202Z,10.07
2018-01-07T15:21:11.738Z,10.63
2018-01-07T15:23:39.391Z,9.63
2018-01-07T15:26:07.933Z,10.10
2018-01-07T15:28:35.463Z,12.50
2018-01-07T15:31:03.024Z,14.67
2018-01-07T15:33:30.560Z,9.30
2018-01-07T15:35:58.114Z,10.50
2018-01-07T15:38:25.656Z,11.77
2018-01-07T15:40:53.173Z,11.07
2018-01-07T15:43:20.698Z,9.43
2018-01-07T15:45:48.228Z,9.63
2018-01-07T15:48:15.768Z,7.93
2018-01-07T15:50:43.280Z,9.50
2018-01-07T15:53:10.836Z,10.17
2018-01-07T15:55:38.355Z,9.67
2018-01-07T15:58:05.937Z,9.80
2018-01-07T16:00:33.468Z,8.63
2018-01-07T16:03:01.028Z,8.70
2018-01-07T16:05:28.554Z,8.73
2018-01-07T16:07:56.074Z,8.60
2018-01-07T16:10:23.620Z,9.00
2018-01-07T16:12:51.143Z,8.00
2018-01-07T16:15:18.673Z,8.50
2018-01-07T16:17:46.203Z,8.97
2018-01-07T16:20:13.745Z,9.13
2018-01-07T16:22:41.313Z,8.80
2018-01-07T16:25:08.868Z,8.77
2018-01-07T16:27:36.436Z,8.10
2018-01-07T16:30:03.985Z,8.67
2018-01-07T16:32:31.534Z,8.40
2018-01-07T16:34:59.053Z,8.13
2018-01-07T16:37:26.606Z,7.10
2018-01-07T16:39:54.180Z,8.77
2018-01-07T16:42:21.724Z,9.37
2018-01-07T16:44:49.269Z,9.80
2018-01-07T16:47:16.859Z,9.07
2018-01-07T16:49:44.415Z,8.80
2018-01-07T16:52:11.949Z,8.70
2018-01-07T16:54:39.508Z,8.97
2018-01-07T16:57:07.100Z,10.37
2018-01-07T16:59:34.626Z,9.40
2018-01-07T17:02:02.159Z,9.07
2018-01-07T17:04:29.684Z,11.70
2018-01-07T17:06:57.208Z,9.73
2018-01-07T17:09:24.745Z,9.53
2018-01-07T17:11:52.467Z,9.40
2018-01-07T17:14:20.004Z,10.50
2018-01-07T17:16:47.533Z,9.67
2018-01-07T17:19:15.068Z,9.70
2018-01-07T17:21:42.675Z,10.10
2018-01-07T17:24:10.200Z,9.13
2018-01-07T17:26:37.763Z,10.17
2018-01-07T17:29:05.308Z,9.90
2018-01-07T17:31:32.829Z,9.23
2018-01-07T17:34:00.398Z,10.63
2018-01-07T17:36:28.030Z,10.40
2018-01-07T17:38:55.598Z,10.50
2018-01-07T17:41:23.138Z,10.17
2018-01-07T17:43:50.669Z,10.40
2018-01-07T17:46:18.228Z,10.20
2018-01-07T17:48:45.764Z,9.17
2018-01-07T17:51:13.278Z,8.30
2018-01-07T17:53:40.804Z,9.33
2018-01-07T17:56:08.320Z,7.70
2018-01-07T17:58:35.875Z,7.83
2018-01-07T18:01:03.393Z,7.80
2018-01-07T18:03:30.959Z,8.67
2018-01-07T18:05:58.646Z,7.67
2018-01-07T18:08:26.180Z,8.30
2018-01-07T18:10:53.724Z,9.47
2018-01-07T18:13:21.260Z,10.17
2018-01-07T18:15:48.785Z,9.87
2018-01-07T18:18:16.329Z,9.60
2018-01-07T18:20:43.993Z,9.20
2018-01-07T18:23:11.545Z,9.70
2018-01-07T18:25:39.105Z,9.80
2018-01-07T18:28:06.644Z,10.23
2018-01-07T18:30:34.195Z,9.80
2018-01-07T18:33:01.789Z,9.73
2018-01-07T18:35:29.345Z,10.27
2018-01-07T18:37:56.989Z,10.47
2018-01-07T18:40:24.514Z,10.60
2018-01-07T18:42:52.083Z,10.07
2018-01-07T18:45:19.668Z,10.20
2018-01-07T18:47:47.198Z,10.20
2018-01-07T18:50:14.744Z,10.23
2018-01-07T18:52:42.289Z,10.27
2018-01-07T18:55:09.879Z,10.93
2018-01-07T18:57:37.426Z,10.37
2018-01-07T19:00:04.989Z,11.30
2018-01-07T19:02:32.519Z,11.50
2018-01-07T19:05:00.059Z,11.13
2018-01-07T19:07:27.580Z,10.00
2018-01-07T19:09:55.160Z,10.53
2018-01-07T19:12:22.704Z,11.70
2018-01-07T19:14:50.268Z,11.30
2018-01-07T19:17:17.831Z,11.30
2018-01-07T19:19:45.423Z,11.10
2018-01-07T19:22:13.017Z,13.00
2018-01-07T19:24:40.574Z,13.47
2018-01-07T19:27:08.203Z,11.90
2018-01-07T19:29:35.755Z,11.83
2018-01-07T19:32:03.374Z,20.77
2018-01-07T19:34:30.936Z,15.43
2018-01-07T19:36:58.605Z,15.63
2018-01-07T19:39:26.239Z,13.60
2018-01-07T19:41:53.781Z,22.53
2018-01-07T19:44:21.319Z,12.57
2018-01-07T19:46:48.886Z,13.20
2018-01-07T19:49:16.406Z,13.70
2018-01-07T19:51:44.063Z,14.70
2018-01-07T19:54:11.657Z,12.70
2018-01-07T19:56:39.209Z,11.57
2018-01-07T19:59:06.953Z,12.00
2018-01-07T20:01:34.491Z,11.53
2018-01-07T20:04:02.110Z,12.40
2018-01-07T20:06:29.661Z,12.47
2018-01-07T20:08:57.592Z,12.20
2018-01-07T20:11:25.191Z,12.87
2018-01-07T20:13:52.726Z,13.97
2018-01-07T20:16:20.297Z,12.87
2018-01-07T20:18:47.946Z,12.70
2018-01-07T20:21:15.519Z,13.63
2018-01-07T20:23:43.069Z,12.10
2018-01-07T20:26:10.644Z,14.07
2018-01-07T20:28:39.739Z,13.47
2018-01-07T20:31:10.903Z,15.77
2018-01-07T20:33:39.373Z,15.30
2018-01-07T20:36:06.912Z,13.90
2018-01-07T20:38:34.464Z,13.60
2018-01-07T20:41:01.996Z,14.10
2018-01-07T20:43:29.525Z,15.20
2018-01-07T20:45:57.085Z,13.50
2018-01-07T20:48:24.691Z,12.67
2018-01-07T20:50:52.250Z,13.00
2018-01-07T20:53:19.776Z,13.60
2018-01-07T20:55:47.399Z,13.57
2018-01-07T20:58:15.022Z,14.43
2018-01-07T21:00:42.601Z,14.50
2018-01-07T21:03:10.139Z,13.20
2018-01-07T21:05:37.831Z,14.43
2018-01-07T21:08:05.403Z,13.87
2018-01-07T21:10:32.944Z,12.00
2018-01-07T21:13:00.599Z,14.00
2018-01-07T21:15:28.140Z,13.03
2018-01-07T21:17:55.744Z,13.40
2018-01-07T21:20:25.160Z,13.37
2018-01-07T21:22:52.698Z,14.17
2018-01-07T21:25:20.295Z,12.07
2018-01-07T21:27:48.163Z,13.00
2018-01-07T21:30:15.894Z,12.70
2018-01-07T21:32:43.440Z,14.30
2018-01-07T21:35:10.971Z,11.87
2018-01-07T21:37:38.506Z,12.30
2018-01-07T21:40:06.044Z,13.40
2018-01-07T21:42:33.558Z,12.27
2018-01-07T21:45:01.116Z,13.53
2018-01-07T21:47:28.650Z,12.83
2018-01-07T21:49:56.196Z,13.50
2018-01-07T21:52:23.755Z,14.17
2018-01-07T21:54:51.290Z,13.60
2018-01-07T21:57:18.820Z,13.50
2018-01-07T21:59:58.198Z,13.87
2018-01-07T22:02:27.675Z,13.57
2018-01-07T22:04:55.989Z,12.93
2018-01-07T22:07:23.518Z,13.87
2018-01-07T22:09:51.052Z,14.63
2018-01-07T22:12:20.410Z,13.43
2018-01-07T22:14:47.956Z,13.40
2018-01-07T22:17:15.511Z,14.23
2018-01-07T22:19:43.026Z,12.40
2018-01-07T22:22:10.570Z,13.40
2018-01-07T22:24:38.105Z,13.83
2018-01-07T22:27:05.620Z,13.53
2018-01-07T22:29:33.146Z,13.33
2018-01-07T22:32:00.707Z,13.10
2018-01-07T22:34:28.246Z,14.30
2018-01-07T22:36:55.788Z,13.30
2018-01-07T22:39:23.320Z,14.43
2018-01-07T22:41:50.877Z,14.60
2018-01-07T22:44:18.410Z,13.00
2018-01-07T22:46:45.941Z,13.30
2018-01-07T22:49:13.465Z,14.60
2018-01-07T22:51:41.000Z,14.13
2018-01-07T22:54:08.786Z,14.57
2018-01-07T22:56:36.316Z,14.20
2018-01-07T22:59:03.859Z,14.80
2018-01-07T23:01:31.379Z,14.07
2018-01-07T23:03:58.933Z,13.80
2018-01-07T23:06:26.473Z,13.93
2018-01-07T23:08:54.016Z,14.57
2018-01-07T23:11:21.544Z,14.57
2018-01-07T23:13:49.081Z,13.57
2018-01-07T23:16:16.630Z,14.73
2018-01-07T23:18:44.148Z,14.67
2018-01-07T23:21:11.673Z,15.07
2018-01-07T23:23:39.206Z,14.47
2018-01-07T23:26:06.735Z,14.70
2018-01-07T23:28:34.283Z,15.07
2018-01-07T23:31:01.799Z,15.40
2018-01-07T23:33:29.317Z,14.00
2018-01-07T23:35:56.864Z,14.40
2018-01-07T23:38:24.430Z,15.13
2018-01-07T23:40:51.941Z,14.97
2018-01-07T23:43:19.459Z,15.67
2018-01-07T23:45:46.976Z,16.63
2018-01-07T23:48:14.514Z,15.80
2018-01-07T23:50:42.046Z,15.30
2018-01-07T23:53:09.561Z,14.50
2018-01-07T23:55:37.099Z,17.17
2018-01-07T23:58:04.667Z,14.97
